createdAt,value
2023-04-18T00:00:12.582Z,8.24
2023-04-18T00:01:09.887Z,8.22
2023-04-18T00:01:44.809Z,8.20
2023-04-18T00:02:18.564Z,8.20
2023-04-18T00:02:54.479Z,8.19
2023-04-18T00:03:30.273Z,8.19
2023-04-18T00:04:05.274Z,8.20
2023-04-18T00:04:38.978Z,8.23
2023-04-18T00:05:13.220Z,8.21
2023-04-18T00:05:48.231Z,8.20
2023-04-18T00:06:22.386Z,8.23
2023-04-18T00:06:56.039Z,8.22
2023-04-18T00:07:29.343Z,8.20
2023-04-18T00:08:03.324Z,8.22
2023-04-18T00:08:36.916Z,8.21
2023-04-18T00:09:10.661Z,8.21
2023-04-18T00:09:44.712Z,8.24
2023-04-18T00:10:18.517Z,8.22
2023-04-18T00:10:51.967Z,8.22
2023-04-18T00:11:27.352Z,8.24
2023-04-18T00:12:05.777Z,8.23
2023-04-18T00:12:40.850Z,8.22
2023-04-18T00:13:14.230Z,8.18
2023-04-18T00:13:47.688Z,8.23
2023-04-18T00:14:20.993Z,8.21
2023-04-18T00:14:55.113Z,8.23
2023-04-18T00:15:29.596Z,8.22
2023-04-18T00:16:04.254Z,8.21
2023-04-18T00:16:39.049Z,8.21
2023-04-18T00:17:13.612Z,8.21
2023-04-18T00:17:48.499Z,8.22
2023-04-18T00:18:22.241Z,8.21
2023-04-18T00:18:57.380Z,8.22
2023-04-18T00:19:30.890Z,8.26
2023-04-18T00:20:07.204Z,8.25
2023-04-18T00:20:40.688Z,8.25
2023-04-18T00:21:13.957Z,8.25
2023-04-18T00:21:47.253Z,8.24
2023-04-18T00:22:23.720Z,8.25
2023-04-18T00:22:57.216Z,8.25
2023-04-18T00:23:30.471Z,8.25
2023-04-18T00:24:03.813Z,8.20
2023-04-18T00:24:37.257Z,8.21
2023-04-18T00:25:11.305Z,8.22
2023-04-18T00:25:44.618Z,8.20
2023-04-18T00:26:17.887Z,8.19
2023-04-18T00:26:51.071Z,8.18
2023-04-18T00:27:24.455Z,8.16
2023-04-18T00:28:01.370Z,8.15
2023-04-18T00:28:35.305Z,8.15
2023-04-18T00:29:08.601Z,8.21
2023-04-18T00:29:42.769Z,8.19
2023-04-18T00:30:16.182Z,8.19
2023-04-18T00:30:49.471Z,8.20
2023-04-18T00:31:22.888Z,8.22
2023-04-18T00:31:57.511Z,8.20
2023-04-18T00:32:30.804Z,8.21
2023-04-18T00:33:05.737Z,8.18
2023-04-18T00:34:38.425Z,8.05
2023-04-18T00:35:11.733Z,8.10
2023-04-18T00:35:45.014Z,8.09
2023-04-18T00:36:21.076Z,8.09
2023-04-18T00:36:57.481Z,8.10
2023-04-18T00:37:39.991Z,8.07
2023-04-18T00:38:17.384Z,8.10
2023-04-18T00:38:50.766Z,8.10
2023-04-18T00:39:24.095Z,8.10
2023-04-18T00:39:58.352Z,8.10
2023-04-18T00:40:31.863Z,8.07
2023-04-18T00:41:05.524Z,8.03
2023-04-18T00:41:38.975Z,8.04
2023-04-18T00:42:12.491Z,8.06
2023-04-18T00:42:46.012Z,8.01
2023-04-18T00:43:23.829Z,8.03
2023-04-18T00:43:57.258Z,8.02
2023-04-18T00:44:31.747Z,8.09
2023-04-18T00:45:05.852Z,8.07
2023-04-18T00:45:41.879Z,8.06
2023-04-18T00:46:17.343Z,8.02
2023-04-18T00:46:51.514Z,8.01
2023-04-18T00:47:26.049Z,7.97
2023-04-18T00:47:59.375Z,8.00
2023-04-18T00:48:32.705Z,8.00
2023-04-18T00:49:07.430Z,8.00
2023-04-18T00:49:40.868Z,8.00
2023-04-18T00:50:15.200Z,7.97
2023-04-18T00:50:49.027Z,7.94
2023-04-18T00:51:22.500Z,8.00
2023-04-18T00:51:57.005Z,7.98
2023-04-18T00:52:32.093Z,8.00
2023-04-18T00:53:06.363Z,8.00
2023-04-18T00:53:42.014Z,7.99
2023-04-18T00:54:18.316Z,8.00
2023-04-18T00:54:51.895Z,8.01
2023-04-18T00:55:25.828Z,8.02
2023-04-18T00:55:59.412Z,7.98
2023-04-18T00:56:36.296Z,7.97
2023-04-18T00:57:10.010Z,7.98
2023-04-18T00:57:44.568Z,7.97
2023-04-18T00:58:18.450Z,7.98
2023-04-18T00:58:52.186Z,7.99
2023-04-18T00:59:25.994Z,7.99
2023-04-18T01:00:08.814Z,8.00
2023-04-18T01:00:42.996Z,7.96
2023-04-18T01:01:19.247Z,7.96
2023-04-18T01:01:53.075Z,7.96
2023-04-18T01:02:28.730Z,7.98
2023-04-18T01:03:03.965Z,7.98
2023-04-18T01:03:37.976Z,7.99
2023-04-18T01:04:14.133Z,7.96
2023-04-18T01:04:48.098Z,7.97
2023-04-18T01:05:23.076Z,7.96
2023-04-18T01:05:57.673Z,7.95
2023-04-18T01:06:32.209Z,7.92
2023-04-18T01:07:06.268Z,7.89
2023-04-18T01:07:42.785Z,7.93
2023-04-18T01:08:16.478Z,7.91
2023-04-18T01:08:49.863Z,7.92
2023-04-18T01:09:25.865Z,7.96
2023-04-18T01:09:59.678Z,7.95
2023-04-18T01:10:33.013Z,7.94
2023-04-18T01:11:06.285Z,7.94
2023-04-18T01:11:39.789Z,7.93
2023-04-18T01:12:13.254Z,7.94
2023-04-18T01:12:46.662Z,7.92
2023-04-18T01:13:21.302Z,7.91
2023-04-18T01:14:08.534Z,7.88
2023-04-18T01:14:43.171Z,7.86
2023-04-18T01:15:16.477Z,7.83
2023-04-18T01:15:51.234Z,7.86
2023-04-18T01:16:24.704Z,7.86
2023-04-18T01:16:59.026Z,7.86
2023-04-18T01:17:34.852Z,7.83
2023-04-18T01:18:09.305Z,7.81
2023-04-18T01:18:43.586Z,7.83
2023-04-18T01:19:21.721Z,7.86
2023-04-18T01:19:57.762Z,7.83
2023-04-18T01:20:35.482Z,7.81
2023-04-18T01:21:09.413Z,7.81
2023-04-18T01:21:44.083Z,7.81
2023-04-18T01:22:20.204Z,7.77
2023-04-18T01:22:53.937Z,7.77
2023-04-18T01:23:27.479Z,7.79
2023-04-18T01:24:08.102Z,7.77
2023-04-18T01:24:42.326Z,7.75
2023-04-18T01:25:16.273Z,7.78
2023-04-18T01:25:49.753Z,7.76
2023-04-18T01:26:24.377Z,7.79
2023-04-18T01:26:58.916Z,7.80
2023-04-18T01:27:32.854Z,7.81
2023-04-18T01:28:07.353Z,7.79
2023-04-18T01:28:42.352Z,7.78
2023-04-18T01:29:16.108Z,7.77
2023-04-18T01:29:49.554Z,7.79
2023-04-18T01:30:22.916Z,7.78
2023-04-18T01:30:58.331Z,7.76
2023-04-18T01:31:36.473Z,7.77
2023-04-18T01:32:09.897Z,7.74
2023-04-18T01:32:45.293Z,7.72
2023-04-18T01:33:18.770Z,7.73
2023-04-18T01:33:53.588Z,7.73
2023-04-18T01:34:27.400Z,7.76
2023-04-18T01:35:00.740Z,7.75
2023-04-18T01:35:34.685Z,7.70
2023-04-18T01:36:08.176Z,7.82
2023-04-18T01:36:41.581Z,7.81
2023-04-18T01:37:17.832Z,7.74
2023-04-18T01:37:51.136Z,7.71
2023-04-18T01:38:24.438Z,7.67
2023-04-18T01:38:58.553Z,7.70
2023-04-18T01:39:31.954Z,7.68
2023-04-18T01:40:05.767Z,7.66
2023-04-18T01:40:39.227Z,7.63
2023-04-18T01:41:12.621Z,7.63
2023-04-18T01:41:46.063Z,7.61
2023-04-18T01:42:19.296Z,7.68
2023-04-18T01:42:52.717Z,7.66
2023-04-18T01:43:26.091Z,7.62
2023-04-18T01:44:00.350Z,7.62
2023-04-18T01:44:34.072Z,7.62
2023-04-18T01:45:08.139Z,7.64
2023-04-18T01:45:41.421Z,7.67
2023-04-18T01:46:16.012Z,7.69
2023-04-18T01:46:49.429Z,7.64
2023-04-18T01:47:22.819Z,7.69
2023-04-18T01:47:56.414Z,7.70
2023-04-18T01:48:30.136Z,7.71
2023-04-18T01:50:44.517Z,7.61
2023-04-18T01:51:18.382Z,7.52
2023-04-18T01:51:52.387Z,7.53
2023-04-18T01:52:28.398Z,7.47
2023-04-18T01:53:02.244Z,7.55
2023-04-18T01:53:36.377Z,7.58
2023-04-18T01:54:10.297Z,7.58
2023-04-18T01:54:44.335Z,7.57
2023-04-18T01:55:19.583Z,7.59
2023-04-18T01:55:53.590Z,7.64
2023-04-18T01:56:27.363Z,7.62
2023-04-18T01:57:01.532Z,7.63
2023-04-18T01:57:38.268Z,7.53
2023-04-18T01:58:12.193Z,7.57
2023-04-18T01:58:46.211Z,7.59
2023-04-18T01:59:20.165Z,7.60
2023-04-18T01:59:53.980Z,7.63
2023-04-18T02:00:27.973Z,7.61
2023-04-18T02:01:02.354Z,7.60
2023-04-18T02:01:37.021Z,7.58
2023-04-18T02:02:11.700Z,7.58
2023-04-18T02:02:46.016Z,7.60
2023-04-18T02:03:20.446Z,7.59
2023-04-18T02:03:57.021Z,7.61
2023-04-18T02:04:31.263Z,7.59
2023-04-18T02:05:05.721Z,7.61
2023-04-18T02:05:39.656Z,7.59
2023-04-18T02:06:15.403Z,7.58
2023-04-18T02:06:50.407Z,7.60
2023-04-18T02:07:24.451Z,7.57
2023-04-18T02:07:58.345Z,7.56
2023-04-18T02:08:36.134Z,7.55
2023-04-18T02:09:13.065Z,7.52
2023-04-18T02:09:49.050Z,7.51
2023-04-18T02:10:23.456Z,7.56
2023-04-18T02:10:57.283Z,7.57
2023-04-18T02:11:31.139Z,7.64
2023-04-18T02:12:08.284Z,7.61
2023-04-18T02:12:42.121Z,7.58
2023-04-18T02:13:17.341Z,7.57
2023-04-18T02:13:51.062Z,7.58
2023-04-18T02:14:24.981Z,7.59
2023-04-18T02:14:59.298Z,7.64
2023-04-18T02:15:34.293Z,7.63
2023-04-18T02:16:13.217Z,7.61
2023-04-18T02:16:46.991Z,7.62
2023-04-18T02:17:24.205Z,7.62
2023-04-18T02:18:01.485Z,7.62
2023-04-18T02:18:35.280Z,7.63
2023-04-18T02:19:09.026Z,7.63
2023-04-18T02:19:43.227Z,7.65
2023-04-18T02:20:17.111Z,7.66
2023-04-18T02:20:52.346Z,7.65
2023-04-18T02:21:30.588Z,7.63
2023-04-18T02:22:04.700Z,7.63
2023-04-18T02:22:39.802Z,7.65
2023-04-18T02:23:13.466Z,7.66
2023-04-18T02:23:47.384Z,7.65
2023-04-18T02:24:21.228Z,7.65
2023-04-18T02:24:55.084Z,7.63
2023-04-18T02:25:29.739Z,7.64
2023-04-18T02:26:06.617Z,7.66
2023-04-18T02:26:40.976Z,7.62
2023-04-18T02:27:14.736Z,7.60
2023-04-18T02:27:48.507Z,7.64
2023-04-18T02:28:22.324Z,7.63
2023-04-18T02:28:56.270Z,7.63
2023-04-18T02:29:30.821Z,7.63
2023-04-18T02:30:04.944Z,7.62
2023-04-18T02:30:40.313Z,7.62
2023-04-18T02:31:15.656Z,7.61
2023-04-18T02:31:49.635Z,7.62
2023-04-18T02:32:23.483Z,7.60
2023-04-18T02:32:59.938Z,7.60
2023-04-18T02:33:33.814Z,7.60
2023-04-18T02:34:09.012Z,7.64
2023-04-18T02:34:42.848Z,7.64
2023-04-18T02:35:16.870Z,7.64
2023-04-18T02:35:50.701Z,7.65
2023-04-18T02:36:26.433Z,7.66
2023-04-18T02:37:00.990Z,7.68
2023-04-18T02:37:35.404Z,7.66
2023-04-18T02:38:09.137Z,7.66
2023-04-18T02:38:42.785Z,7.66
2023-04-18T02:39:16.613Z,7.66
2023-04-18T02:39:51.195Z,7.65
2023-04-18T02:40:24.936Z,7.62
2023-04-18T02:40:58.610Z,7.62
2023-04-18T02:41:35.224Z,7.63
2023-04-18T02:42:09.267Z,7.61
2023-04-18T02:42:43.610Z,7.56
2023-04-18T02:43:20.325Z,7.62
2023-04-18T02:43:55.786Z,7.62
2023-04-18T02:44:29.935Z,7.64
2023-04-18T02:45:04.035Z,7.65
2023-04-18T02:45:38.007Z,7.64
2023-04-18T02:46:12.817Z,7.63
2023-04-18T02:46:47.881Z,7.62
2023-04-18T02:47:22.081Z,7.64
2023-04-18T02:47:56.831Z,7.61
2023-04-18T02:48:30.956Z,7.66
2023-04-18T02:49:05.832Z,7.69
2023-04-18T02:49:39.719Z,7.65
2023-04-18T02:50:13.353Z,7.65
2023-04-18T02:50:47.105Z,7.64
2023-04-18T02:51:20.834Z,7.65
2023-04-18T02:51:56.241Z,7.67
2023-04-18T02:52:31.307Z,7.65
2023-04-18T02:53:05.235Z,7.63
2023-04-18T02:53:49.025Z,7.60
2023-04-18T02:54:23.712Z,7.58
2023-04-18T02:55:11.423Z,7.57
2023-04-18T02:55:47.235Z,7.58
2023-04-18T02:56:22.456Z,7.60
2023-04-18T02:57:14.924Z,7.60
2023-04-18T02:57:54.537Z,7.57
2023-04-18T02:59:09.019Z,7.49
2023-04-18T03:00:37.571Z,7.49
2023-04-18T03:01:27.305Z,7.40
2023-04-18T03:02:07.203Z,7.39
2023-04-18T03:02:42.652Z,7.40
2023-04-18T03:03:32.739Z,7.39
2023-04-18T03:04:18.977Z,7.37
2023-04-18T03:05:02.237Z,7.40
2023-04-18T03:05:36.619Z,7.41
2023-04-18T03:06:11.520Z,7.39
2023-04-18T03:06:46.545Z,7.42
2023-04-18T03:07:21.566Z,7.41
2023-04-18T03:07:56.117Z,7.44
2023-04-18T03:08:30.136Z,7.41
2023-04-18T03:09:05.808Z,7.42
2023-04-18T03:09:41.155Z,7.39
2023-04-18T03:10:23.344Z,7.38
2023-04-18T03:10:57.543Z,7.35
2023-04-18T03:11:31.910Z,7.35
2023-04-18T03:12:08.839Z,7.37
2023-04-18T03:12:42.953Z,7.39
2023-04-18T03:13:17.771Z,7.42
2023-04-18T03:13:52.140Z,7.42
2023-04-18T03:14:26.705Z,7.42
2023-04-18T03:15:02.439Z,7.42
2023-04-18T03:15:36.680Z,7.44
2023-04-18T03:16:10.437Z,7.45
2023-04-18T03:16:44.584Z,7.46
2023-04-18T03:17:20.067Z,7.47
2023-04-18T03:17:55.813Z,7.47
2023-04-18T03:18:29.863Z,7.48
2023-04-18T03:19:05.959Z,7.47
2023-04-18T03:19:40.627Z,7.42
2023-04-18T03:20:16.721Z,7.42
2023-04-18T03:20:56.238Z,7.40
2023-04-18T03:21:30.149Z,7.40
2023-04-18T03:22:04.001Z,7.43
2023-04-18T03:22:37.903Z,7.47
2023-04-18T03:23:11.831Z,7.44
2023-04-18T03:23:45.965Z,7.41
2023-04-18T03:24:19.808Z,7.41
2023-04-18T03:24:55.530Z,7.42
2023-04-18T03:25:35.678Z,7.41
2023-04-18T03:26:09.961Z,7.40
2023-04-18T03:26:44.518Z,7.42
2023-04-18T03:27:18.639Z,7.42
2023-04-18T03:27:52.649Z,7.42
2023-04-18T03:28:28.216Z,7.42
2023-04-18T03:29:03.386Z,7.46
2023-04-18T03:29:37.446Z,7.51
2023-04-18T03:30:12.800Z,7.49
2023-04-18T03:30:47.143Z,7.43
2023-04-18T03:31:21.259Z,7.43
2023-04-18T03:31:55.103Z,7.40
2023-04-18T03:32:29.129Z,7.44
2023-04-18T03:33:03.070Z,7.40
2023-04-18T03:33:39.494Z,7.42
2023-04-18T03:34:16.028Z,7.43
2023-04-18T03:34:51.766Z,7.46
2023-04-18T03:35:26.423Z,7.43
2023-04-18T03:36:00.270Z,7.40
2023-04-18T03:36:34.361Z,7.31
2023-04-18T03:37:08.218Z,7.46
2023-04-18T03:37:46.178Z,7.42
2023-04-18T03:38:24.956Z,7.37
2023-04-18T03:38:58.898Z,7.37
2023-04-18T03:39:32.730Z,7.39
2023-04-18T03:40:07.397Z,7.40
2023-04-18T03:40:44.827Z,7.38
2023-04-18T03:41:25.230Z,7.38
2023-04-18T03:41:59.185Z,7.38
2023-04-18T03:42:33.186Z,7.37
2023-04-18T03:43:07.021Z,7.37
2023-04-18T03:43:40.669Z,7.40
2023-04-18T03:44:14.740Z,7.39
2023-04-18T03:44:49.004Z,7.31
2023-04-18T03:45:22.839Z,7.42
2023-04-18T03:45:56.824Z,7.40
2023-04-18T03:46:31.469Z,7.41
2023-04-18T03:47:08.402Z,7.41
2023-04-18T03:47:43.085Z,7.41
2023-04-18T03:48:16.965Z,7.40
2023-04-18T03:48:50.995Z,7.40
2023-04-18T03:49:24.864Z,7.40
2023-04-18T03:49:58.779Z,7.42
2023-04-18T03:50:33.862Z,7.39
2023-04-18T03:51:08.447Z,7.43
2023-04-18T03:51:50.545Z,7.44
2023-04-18T03:52:24.923Z,7.45
2023-04-18T03:52:58.686Z,7.43
2023-04-18T03:53:32.708Z,7.42
2023-04-18T03:54:07.517Z,7.42
2023-04-18T03:54:41.464Z,7.41
2023-04-18T03:55:16.279Z,7.41
2023-04-18T03:55:51.022Z,7.43
2023-04-18T03:56:26.223Z,7.47
2023-04-18T03:57:05.181Z,7.45
2023-04-18T03:57:43.517Z,7.42
2023-04-18T03:58:24.014Z,7.41
2023-04-18T03:58:59.118Z,7.40
2023-04-18T03:59:33.051Z,7.44
2023-04-18T04:00:11.214Z,7.39
2023-04-18T04:00:57.016Z,7.36
2023-04-18T04:01:30.974Z,7.41
2023-04-18T04:02:05.112Z,7.36
2023-04-18T04:02:39.733Z,7.37
2023-04-18T04:03:13.702Z,7.33
2023-04-18T04:03:47.808Z,7.33
2023-04-18T04:04:22.231Z,7.31
2023-04-18T04:04:57.604Z,7.32
2023-04-18T04:05:31.618Z,7.33
2023-04-18T04:06:07.175Z,7.31
2023-04-18T04:06:41.451Z,7.34
2023-04-18T04:07:15.191Z,7.40
2023-04-18T04:07:49.122Z,7.39
2023-04-18T04:08:22.949Z,7.38
2023-04-18T04:08:56.815Z,7.37
2023-04-18T04:09:32.434Z,7.34
2023-04-18T04:10:07.301Z,7.34
2023-04-18T04:10:41.125Z,7.36
2023-04-18T04:11:14.883Z,7.40
2023-04-18T04:11:49.316Z,7.42
2023-04-18T04:12:23.401Z,7.39
2023-04-18T04:12:57.180Z,7.38
2023-04-18T04:13:32.120Z,7.37
2023-04-18T04:14:06.328Z,7.33
2023-04-18T04:14:44.741Z,7.36
2023-04-18T04:15:18.705Z,7.37
2023-04-18T04:16:02.904Z,7.37
2023-04-18T04:16:37.149Z,7.38
2023-04-18T04:17:11.426Z,7.38
2023-04-18T04:17:46.480Z,7.39
2023-04-18T04:18:20.950Z,7.45
2023-04-18T04:18:54.777Z,7.44
2023-04-18T04:19:30.661Z,7.40
2023-04-18T04:20:14.576Z,7.35
2023-04-18T04:20:51.565Z,7.32
2023-04-18T04:21:39.466Z,7.31
2023-04-18T04:22:17.437Z,7.31
2023-04-18T04:22:52.894Z,7.30
2023-04-18T04:23:27.453Z,7.30
2023-04-18T04:24:02.018Z,7.30
2023-04-18T04:24:40.020Z,7.30
2023-04-18T04:25:14.111Z,7.30
2023-04-18T04:25:54.160Z,7.32
2023-04-18T04:26:43.744Z,7.30
2023-04-18T04:27:23.517Z,7.26
2023-04-18T04:27:57.713Z,7.29
2023-04-18T04:28:32.037Z,7.30
2023-04-18T04:29:10.445Z,7.31
2023-04-18T04:29:45.625Z,7.28
2023-04-18T04:30:20.092Z,7.27
2023-04-18T04:30:56.293Z,7.34
2023-04-18T04:31:30.800Z,7.31
2023-04-18T04:32:06.054Z,7.30
2023-04-18T04:32:45.030Z,7.29
2023-04-18T04:33:25.601Z,7.31
2023-04-18T04:34:00.213Z,7.32
2023-04-18T04:34:36.066Z,7.33
2023-04-18T04:35:17.725Z,7.31
2023-04-18T04:35:55.159Z,7.28
2023-04-18T04:36:29.549Z,7.28
2023-04-18T04:37:04.117Z,7.26
2023-04-18T04:37:44.545Z,7.28
2023-04-18T04:38:40.925Z,7.25
2023-04-18T04:39:18.035Z,7.25
2023-04-18T04:40:09.684Z,7.23
2023-04-18T04:40:57.733Z,7.26
2023-04-18T04:41:38.067Z,7.27
2023-04-18T04:42:12.612Z,7.24
2023-04-18T04:42:57.056Z,7.24
2023-04-18T04:43:35.494Z,7.24
2023-04-18T04:44:09.966Z,7.23
2023-04-18T04:44:44.234Z,7.29
2023-04-18T04:45:18.450Z,7.28
2023-04-18T04:45:53.980Z,7.29
2023-04-18T04:46:31.303Z,7.27
2023-04-18T04:47:05.469Z,7.27
2023-04-18T04:47:41.508Z,7.28
2023-04-18T04:48:16.047Z,7.31
2023-04-18T04:48:54.780Z,7.30
2023-04-18T04:49:28.762Z,7.29
2023-04-18T04:50:04.781Z,7.30
2023-04-18T04:50:42.654Z,7.31
2023-04-18T04:51:18.542Z,7.33
2023-04-18T04:51:52.739Z,7.32
2023-04-18T04:52:27.030Z,7.33
2023-04-18T04:53:01.330Z,7.33
2023-04-18T04:53:36.272Z,7.34
2023-04-18T04:54:10.807Z,7.33
2023-04-18T04:54:46.263Z,7.35
2023-04-18T04:55:21.016Z,7.33
2023-04-18T04:55:56.459Z,7.32
2023-04-18T04:56:30.663Z,7.31
2023-04-18T04:57:04.757Z,7.33
2023-04-18T04:57:38.874Z,7.33
2023-04-18T04:58:22.296Z,7.33
2023-04-18T04:59:22.628Z,7.30
2023-04-18T04:59:57.737Z,7.30
2023-04-18T05:00:31.940Z,7.35
2023-04-18T05:01:10.942Z,7.34
2023-04-18T05:01:45.681Z,7.35
2023-04-18T05:02:23.762Z,7.33
2023-04-18T05:02:58.249Z,7.32
2023-04-18T05:03:33.173Z,7.34
2023-04-18T05:04:07.360Z,7.35
2023-04-18T05:04:41.583Z,7.36
2023-04-18T05:05:15.973Z,7.36
2023-04-18T05:05:49.786Z,7.38
2023-04-18T05:06:24.809Z,7.38
2023-04-18T05:06:58.722Z,7.40
2023-04-18T05:07:32.470Z,7.43
2023-04-18T05:08:06.659Z,7.41
2023-04-18T05:08:40.877Z,7.41
2023-04-18T05:09:14.533Z,7.42
2023-04-18T05:09:56.731Z,7.43
2023-04-18T05:11:01.660Z,7.32
2023-04-18T05:11:38.477Z,7.31
2023-04-18T05:12:12.583Z,7.36
2023-04-18T05:12:50.588Z,7.37
2023-04-18T05:13:24.424Z,7.38
2023-04-18T05:13:58.417Z,7.39
2023-04-18T05:14:32.453Z,7.42
2023-04-18T05:15:07.189Z,7.41
2023-04-18T05:15:41.565Z,7.40
2023-04-18T05:16:15.362Z,7.41
2023-04-18T05:16:49.393Z,7.44
2023-04-18T05:17:23.453Z,7.46
2023-04-18T05:17:58.707Z,7.48
2023-04-18T05:18:34.846Z,7.49
2023-04-18T05:19:08.770Z,7.45
2023-04-18T05:19:44.644Z,7.47
2023-04-18T05:20:18.606Z,7.49
2023-04-18T05:20:52.597Z,7.50
2023-04-18T05:21:29.159Z,7.50
2023-04-18T05:22:03.432Z,7.50
2023-04-18T05:22:37.453Z,7.52
2023-04-18T05:23:11.637Z,7.56
2023-04-18T05:24:14.783Z,7.55
2023-04-18T05:24:54.701Z,7.50
2023-04-18T05:25:30.157Z,7.49
2023-04-18T05:26:07.330Z,7.52
2023-04-18T05:26:44.762Z,7.54
2023-04-18T05:27:22.112Z,7.52
2023-04-18T05:27:57.906Z,7.52
2023-04-18T05:28:34.564Z,7.50
2023-04-18T05:29:08.584Z,7.49
2023-04-18T05:29:42.584Z,7.50
2023-04-18T05:30:40.791Z,7.50
2023-04-18T05:31:14.713Z,7.52
2023-04-18T05:31:51.603Z,7.53
2023-04-18T05:32:25.537Z,7.58
2023-04-18T05:32:59.355Z,7.56
2023-04-18T05:33:33.503Z,7.58
2023-04-18T05:34:07.485Z,7.60
2023-04-18T05:34:41.390Z,7.57
2023-04-18T05:35:15.143Z,7.57
2023-04-18T05:35:48.803Z,7.55
2023-04-18T05:36:23.204Z,7.47
2023-04-18T05:37:03.132Z,7.53
2023-04-18T05:37:36.980Z,7.56
2023-04-18T05:38:11.008Z,7.58
2023-04-18T05:38:44.926Z,7.58
2023-04-18T05:39:18.865Z,7.58
2023-04-18T05:39:52.797Z,7.60
2023-04-18T05:40:30.427Z,7.60
2023-04-18T05:41:04.624Z,7.63
2023-04-18T05:41:38.536Z,7.63
2023-04-18T05:42:12.190Z,7.63
2023-04-18T05:42:46.216Z,7.63
2023-04-18T05:43:20.508Z,7.62
2023-04-18T05:44:04.861Z,7.62
2023-04-18T05:44:40.001Z,7.64
2023-04-18T05:45:13.811Z,7.63
2023-04-18T05:45:48.154Z,7.64
2023-04-18T05:46:22.098Z,7.65
2023-04-18T05:46:56.233Z,7.66
2023-04-18T05:47:30.806Z,7.66
2023-04-18T05:48:05.044Z,7.68
2023-04-18T05:48:38.909Z,7.69
2023-04-18T05:49:13.483Z,7.71
2023-04-18T05:49:47.152Z,7.69
2023-04-18T05:50:23.679Z,7.68
2023-04-18T05:50:58.322Z,7.71
2023-04-18T05:51:34.862Z,7.70
2023-04-18T05:52:08.616Z,7.70
2023-04-18T05:52:42.650Z,7.71
2023-04-18T05:53:19.203Z,7.72
2023-04-18T05:53:55.901Z,7.70
2023-04-18T05:54:29.812Z,7.70
2023-04-18T05:55:03.839Z,7.70
2023-04-18T05:55:39.770Z,7.73
2023-04-18T05:56:13.785Z,7.74
2023-04-18T05:56:50.539Z,7.78
2023-04-18T05:57:24.641Z,7.77
2023-04-18T05:57:58.809Z,7.78
2023-04-18T05:58:35.263Z,7.78
2023-04-18T05:59:09.480Z,7.79
2023-04-18T05:59:43.860Z,7.77
2023-04-18T06:00:21.294Z,7.78
2023-04-18T06:00:56.305Z,7.77
2023-04-18T06:01:30.124Z,7.77
2023-04-18T06:02:13.770Z,7.80
2023-04-18T06:02:48.138Z,7.80
2023-04-18T06:03:24.641Z,7.79
2023-04-18T06:03:58.901Z,7.82
2023-04-18T06:04:33.368Z,7.82
2023-04-18T06:05:08.247Z,7.83
2023-04-18T06:05:45.244Z,7.84
2023-04-18T06:06:19.469Z,7.85
2023-04-18T06:06:53.134Z,7.85
2023-04-18T06:07:27.064Z,7.85
2023-04-18T06:08:01.198Z,7.86
2023-04-18T06:08:35.451Z,7.90
2023-04-18T06:09:09.289Z,7.89
2023-04-18T06:09:43.148Z,7.88
2023-04-18T06:10:17.635Z,7.88
2023-04-18T06:10:51.531Z,7.88
2023-04-18T06:11:25.208Z,7.85
2023-04-18T06:11:59.494Z,7.87
2023-04-18T06:12:33.245Z,7.86
2023-04-18T06:13:07.172Z,7.86
2023-04-18T06:13:41.260Z,7.89
2023-04-18T06:14:15.222Z,7.89
2023-04-18T06:14:50.244Z,7.89
2023-04-18T06:15:24.244Z,7.88
2023-04-18T06:15:58.461Z,7.90
2023-04-18T06:16:32.525Z,7.86
2023-04-18T06:17:10.424Z,7.89
2023-04-18T06:17:45.041Z,7.91
2023-04-18T06:18:19.006Z,7.91
2023-04-18T06:18:55.728Z,7.89
2023-04-18T06:19:29.557Z,7.88
2023-04-18T06:20:06.144Z,7.89
2023-04-18T06:20:40.213Z,7.88
2023-04-18T06:21:14.769Z,7.89
2023-04-18T06:21:49.516Z,7.90
2023-04-18T06:22:23.361Z,7.90
2023-04-18T06:22:57.197Z,7.92
2023-04-18T06:23:31.169Z,7.94
2023-04-18T06:24:04.951Z,7.96
2023-04-18T06:24:38.798Z,7.95
2023-04-18T06:25:12.546Z,7.95
2023-04-18T06:25:46.743Z,7.96
2023-04-18T06:26:20.703Z,7.95
2023-04-18T06:26:56.255Z,7.95
2023-04-18T06:27:31.886Z,7.96
2023-04-18T06:28:06.096Z,7.99
2023-04-18T06:28:40.077Z,8.00
2023-04-18T06:29:13.823Z,8.03
2023-04-18T06:29:47.736Z,7.97
2023-04-18T06:30:22.430Z,7.96
2023-04-18T06:30:59.044Z,7.96
2023-04-18T06:31:33.103Z,7.95
2023-04-18T06:32:07.268Z,7.95
2023-04-18T06:32:41.193Z,7.95
2023-04-18T06:33:15.037Z,7.95
2023-04-18T06:33:48.960Z,7.99
2023-04-18T06:34:22.984Z,8.06
2023-04-18T06:34:57.268Z,7.98
2023-04-18T06:35:32.099Z,7.95
2023-04-18T06:36:07.470Z,7.95
2023-04-18T06:36:41.507Z,7.93
2023-04-18T06:37:18.295Z,7.93
2023-04-18T06:37:52.680Z,7.93
2023-04-18T06:38:38.122Z,7.95
2023-04-18T06:39:12.161Z,7.98
2023-04-18T06:39:46.350Z,7.98
2023-04-18T06:40:20.271Z,7.97
2023-04-18T06:40:54.135Z,7.95
2023-04-18T06:41:27.962Z,7.95
2023-04-18T06:42:02.965Z,7.94
2023-04-18T06:42:39.339Z,7.94
2023-04-18T06:43:13.156Z,7.95
2023-04-18T06:44:02.028Z,7.97
2023-04-18T06:44:37.006Z,7.95
2023-04-18T06:45:12.396Z,7.92
2023-04-18T06:45:47.583Z,7.91
2023-04-18T06:46:21.590Z,7.92
2023-04-18T06:46:56.083Z,7.93
2023-04-18T06:47:30.687Z,7.96
2023-04-18T06:48:07.416Z,7.97
2023-04-18T06:48:41.497Z,7.97
2023-04-18T06:49:15.390Z,7.98
2023-04-18T06:49:49.149Z,7.94
2023-04-18T06:50:23.094Z,7.96
2023-04-18T06:50:57.201Z,7.92
2023-04-18T06:51:32.027Z,7.92
2023-04-18T06:52:08.489Z,7.91
2023-04-18T06:52:44.835Z,7.94
2023-04-18T06:53:18.670Z,7.90
2023-04-18T06:53:55.420Z,7.91
2023-04-18T06:54:29.533Z,7.91
2023-04-18T06:55:06.761Z,7.92
2023-04-18T06:55:41.409Z,7.96
2023-04-18T06:56:15.254Z,7.92
2023-04-18T06:56:49.081Z,7.91
2023-04-18T06:57:23.021Z,7.90
2023-04-18T06:57:56.789Z,7.92
2023-04-18T06:58:30.798Z,7.92
2023-04-18T06:59:04.529Z,7.92
2023-04-18T06:59:38.284Z,7.92
2023-04-18T07:00:12.564Z,7.93
2023-04-18T07:00:49.252Z,7.95
2023-04-18T07:01:23.081Z,7.96
2023-04-18T07:01:57.812Z,7.96
2023-04-18T07:02:32.058Z,7.97
2023-04-18T07:03:11.374Z,7.97
2023-04-18T07:03:45.967Z,7.93
2023-04-18T07:04:20.458Z,7.92
2023-04-18T07:04:54.552Z,7.93
2023-04-18T07:05:28.502Z,7.93
2023-04-18T07:06:03.504Z,7.94
2023-04-18T07:06:37.950Z,7.94
2023-04-18T07:07:11.910Z,7.94
2023-04-18T07:07:45.932Z,7.97
2023-04-18T07:08:20.383Z,8.00
2023-04-18T07:08:56.282Z,7.98
2023-04-18T07:09:30.312Z,7.99
2023-04-18T07:10:05.058Z,8.02
2023-04-18T07:10:38.958Z,7.99
2023-04-18T07:11:15.686Z,7.95
2023-04-18T07:11:51.504Z,8.00
2023-04-18T07:12:28.317Z,7.98
2023-04-18T07:13:02.158Z,8.00
2023-04-18T07:13:36.097Z,7.99
2023-04-18T07:14:12.897Z,8.00
2023-04-18T07:14:47.029Z,8.00
2023-04-18T07:15:21.038Z,8.01
2023-04-18T07:15:55.136Z,8.01
2023-04-18T07:16:28.938Z,8.02
2023-04-18T07:17:02.768Z,8.04
2023-04-18T07:17:39.199Z,8.06
2023-04-18T07:18:16.132Z,8.05
2023-04-18T07:18:54.515Z,8.07
2023-04-18T07:19:28.242Z,8.05
2023-04-18T07:20:04.343Z,8.04
2023-04-18T07:20:41.451Z,8.03
2023-04-18T07:21:15.130Z,7.95
2023-04-18T07:21:48.917Z,8.04
2023-04-18T07:22:22.837Z,8.04
2023-04-18T07:22:56.699Z,8.07
2023-04-18T07:23:30.360Z,8.06
2023-04-18T07:24:04.079Z,8.05
2023-04-18T07:24:39.643Z,8.06
2023-04-18T07:25:13.486Z,8.07
2023-04-18T07:25:47.511Z,8.07
2023-04-18T07:26:22.360Z,8.08
2023-04-18T07:26:57.188Z,8.07
2023-04-18T07:27:31.370Z,8.07
2023-04-18T07:28:05.287Z,8.08
2023-04-18T07:28:42.189Z,8.10
2023-04-18T07:29:16.150Z,8.11
2023-04-18T07:29:49.877Z,8.11
2023-04-18T07:30:23.710Z,8.10
2023-04-18T07:30:57.672Z,8.12
2023-04-18T07:31:31.756Z,8.13
2023-04-18T07:32:08.110Z,8.12
2023-04-18T07:32:42.431Z,8.12
2023-04-18T07:33:16.625Z,8.11
2023-04-18T07:33:50.537Z,8.12
2023-04-18T07:34:25.703Z,8.14
2023-04-18T07:34:59.584Z,8.17
2023-04-18T07:35:34.300Z,8.14
2023-04-18T07:36:08.227Z,8.12
2023-04-18T07:36:41.879Z,8.13
2023-04-18T07:37:17.885Z,8.15
2023-04-18T07:37:53.894Z,8.14
2023-04-18T07:38:28.187Z,8.14
2023-04-18T07:39:02.289Z,8.14
2023-04-18T07:39:36.612Z,8.16
2023-04-18T07:40:10.962Z,8.17
2023-04-18T07:40:47.450Z,8.18
2023-04-18T07:41:21.435Z,8.21
2023-04-18T07:41:55.348Z,8.19
2023-04-18T07:42:29.105Z,8.18
2023-04-18T07:43:03.026Z,8.22
2023-04-18T07:43:37.057Z,8.20
2023-04-18T07:44:11.232Z,8.21
2023-04-18T07:44:45.055Z,8.21
2023-04-18T07:45:19.563Z,8.22
2023-04-18T07:45:54.477Z,8.25
2023-04-18T07:46:29.271Z,8.26
2023-04-18T07:47:03.690Z,8.27
2023-04-18T07:47:37.651Z,8.27
2023-04-18T07:48:11.663Z,8.29
2023-04-18T07:48:45.656Z,8.30
2023-04-18T07:49:19.606Z,8.33
2023-04-18T07:49:53.173Z,8.32
2023-04-18T07:50:27.142Z,8.34
2023-04-18T07:51:00.648Z,8.32
2023-04-18T07:51:35.144Z,8.35
2023-04-18T07:52:08.583Z,8.33
2023-04-18T07:52:41.960Z,8.34
2023-04-18T07:53:15.529Z,8.33
2023-04-18T07:53:48.797Z,8.34